createdAt,value
2023-03-26T00:01:53.093Z,94.60
2023-03-26T00:04:21.940Z,95.17
2023-03-26T00:06:50.409Z,95.10
2023-03-26T00:09:18.569Z,94.79
2023-03-26T00:11:46.824Z,94.66
2023-03-26T00:14:17.819Z,94.89
2023-03-26T00:16:47.605Z,94.75
2023-03-26T00:19:15.694Z,95.08
2023-03-26T00:21:43.354Z,95.43
2023-03-26T00:24:16.373Z,95.53
2023-03-26T00:26:44.861Z,95.09
2023-03-26T00:29:15.589Z,95.39
2023-03-26T00:31:46.412Z,95.19
2023-03-26T00:34:18.642Z,95.53
2023-03-26T00:36:47.096Z,95.68
2023-03-26T00:39:15.309Z,95.39
2023-03-26T00:41:43.364Z,95.08
2023-03-26T00:44:11.651Z,95.09
2023-03-26T00:46:39.653Z,94.67
2023-03-26T00:49:11.099Z,94.50
2023-03-26T00:51:39.458Z,93.85
2023-03-26T00:54:08.438Z,93.94
2023-03-26T00:56:36.164Z,93.92
2023-03-26T00:59:04.231Z,93.72
2023-03-26T01:01:32.629Z,93.15
2023-03-26T01:04:28.380Z,93.13
2023-03-26T01:07:28.947Z,92.87
2023-03-26T01:09:58.828Z,93.02
2023-03-26T01:12:32.044Z,92.75
2023-03-26T01:15:01.394Z,93.07
2023-03-26T01:17:34.040Z,93.51
2023-03-26T01:20:15.080Z,92.88
2023-03-26T01:22:47.055Z,92.58
2023-03-26T01:25:14.636Z,92.77
2023-03-26T01:27:42.712Z,92.83
2023-03-26T01:30:19.718Z,92.88
2023-03-26T01:32:53.522Z,92.65
2023-03-26T01:35:49.679Z,92.57
2023-03-26T01:38:36.175Z,92.70
2023-03-26T01:41:54.495Z,92.62
2023-03-26T01:44:31.386Z,93.01
2023-03-26T01:46:59.658Z,93.02
2023-03-26T01:49:28.366Z,93.24
2023-03-26T01:51:56.867Z,93.03
2023-03-26T01:54:27.709Z,92.91
2023-03-26T01:57:16.003Z,92.97
2023-03-26T01:59:57.571Z,92.58
2023-03-26T02:02:32.818Z,92.58
2023-03-26T02:05:08.463Z,92.74
2023-03-26T02:07:51.136Z,92.80
2023-03-26T02:10:42.560Z,92.64
2023-03-26T02:13:11.968Z,92.65
2023-03-26T02:15:41.129Z,92.90
2023-03-26T02:18:13.614Z,92.90
2023-03-26T02:20:41.761Z,92.84
2023-03-26T02:23:09.953Z,93.03
2023-03-26T02:25:39.920Z,92.94
2023-03-26T02:28:07.896Z,93.04
2023-03-26T02:30:35.680Z,93.23
2023-03-26T02:33:03.664Z,93.50
2023-03-26T02:35:32.847Z,93.35
2023-03-26T02:38:02.011Z,93.98
2023-03-26T02:40:29.691Z,94.15
2023-03-26T02:42:58.814Z,94.47
2023-03-26T02:45:27.204Z,94.53
2023-03-26T02:47:56.132Z,94.61
2023-03-26T02:50:25.563Z,95.20
2023-03-26T02:52:54.224Z,95.55
2023-03-26T02:55:21.861Z,95.74
2023-03-26T02:57:50.665Z,96.07
2023-03-26T03:00:22.053Z,96.50
2023-03-26T03:02:58.083Z,96.71
2023-03-26T03:05:26.690Z,96.61
2023-03-26T03:07:58.127Z,97.40
2023-03-26T03:10:32.740Z,97.60
2023-03-26T03:13:01.789Z,97.64
2023-03-26T03:15:29.393Z,97.83
2023-03-26T03:17:57.065Z,97.83
2023-03-26T03:20:27.504Z,98.20
2023-03-26T03:22:55.410Z,98.21
2023-03-26T03:25:23.462Z,98.24
2023-03-26T03:27:51.280Z,98.43
2023-03-26T03:30:19.384Z,98.50
2023-03-26T03:32:48.024Z,98.56
2023-03-26T03:35:16.948Z,98.73
2023-03-26T03:37:44.779Z,98.72
2023-03-26T03:40:13.189Z,99.12
2023-03-26T03:42:41.049Z,99.25
2023-03-26T03:45:09.672Z,99.59
2023-03-26T03:47:38.589Z,99.58
2023-03-26T03:50:07.409Z,99.70
2023-03-26T03:52:35.878Z,100.00
2023-03-26T03:55:04.185Z,99.86
2023-03-26T03:57:34.713Z,99.87
2023-03-26T04:00:06.354Z,100.00
2023-03-26T04:02:43.347Z,100.00
2023-03-26T04:05:12.045Z,100.00
2023-03-26T04:07:40.423Z,100.00
2023-03-26T04:10:10.331Z,100.00
2023-03-26T04:12:45.736Z,100.00
2023-03-26T04:15:13.844Z,100.00
2023-03-26T04:17:45.417Z,100.00
2023-03-26T04:20:16.394Z,100.00
2023-03-26T04:22:44.841Z,100.00
2023-03-26T04:25:13.447Z,100.00
2023-03-26T04:27:44.203Z,100.00
2023-03-26T04:30:16.043Z,100.00
2023-03-26T04:32:45.518Z,100.00
2023-03-26T04:35:15.040Z,100.00
2023-03-26T04:37:44.379Z,100.00
2023-03-26T04:40:20.413Z,100.00
2023-03-26T04:42:48.542Z,100.00
2023-03-26T04:45:22.849Z,100.00
2023-03-26T04:47:53.536Z,100.00
2023-03-26T04:50:21.307Z,100.00
2023-03-26T04:52:49.516Z,100.00
2023-03-26T04:55:36.785Z,100.00
2023-03-26T04:58:06.070Z,100.00
2023-03-26T05:00:36.101Z,100.00
2023-03-26T05:03:04.280Z,100.00
2023-03-26T05:05:32.141Z,100.00
2023-03-26T05:08:00.401Z,100.00
2023-03-26T05:10:28.273Z,100.00
2023-03-26T05:12:56.474Z,100.00
2023-03-26T05:15:24.535Z,100.00
2023-03-26T05:17:52.787Z,100.00
2023-03-26T05:20:26.464Z,100.00
2023-03-26T05:22:54.414Z,100.00
2023-03-26T05:25:22.973Z,100.00
2023-03-26T05:27:50.593Z,100.00
2023-03-26T05:30:21.401Z,100.00
2023-03-26T05:32:50.062Z,99.94
2023-03-26T05:35:19.328Z,99.66
2023-03-26T05:37:47.546Z,99.64
2023-03-26T05:40:17.294Z,99.53
2023-03-26T05:42:46.114Z,99.37
2023-03-26T05:45:16.765Z,99.21
2023-03-26T05:47:44.561Z,98.55
2023-03-26T05:50:12.522Z,98.43
2023-03-26T05:52:41.016Z,97.82
2023-03-26T05:55:09.461Z,97.23
2023-03-26T05:57:42.790Z,97.30
2023-03-26T06:00:16.712Z,96.04
2023-03-26T06:02:44.413Z,95.82
2023-03-26T06:05:13.226Z,95.51
2023-03-26T06:07:44.525Z,95.21
2023-03-26T06:10:18.089Z,94.90
2023-03-26T06:12:46.692Z,94.37
2023-03-26T06:15:15.541Z,93.74
2023-03-26T06:17:43.148Z,92.86
2023-03-26T06:20:12.956Z,91.82
2023-03-26T06:22:41.193Z,91.90
2023-03-26T06:25:10.091Z,91.30
2023-03-26T06:27:38.053Z,90.50
2023-03-26T06:30:08.624Z,91.00
2023-03-26T06:32:36.908Z,90.24
2023-03-26T06:35:06.402Z,89.33
2023-03-26T06:37:34.770Z,89.26
2023-03-26T06:40:03.869Z,88.85
2023-03-26T06:43:08.699Z,88.10
2023-03-26T06:45:22.086Z,87.30
2023-03-26T06:47:52.743Z,86.47
2023-03-26T06:50:22.124Z,85.07
2023-03-26T06:52:54.063Z,84.48
2023-03-26T06:55:21.948Z,83.14
2023-03-26T06:57:53.202Z,83.43
2023-03-26T07:00:22.662Z,83.70
2023-03-26T07:02:53.244Z,82.80
2023-03-26T07:05:33.026Z,81.65
2023-03-26T07:08:03.390Z,80.17
2023-03-26T07:10:43.246Z,78.85
2023-03-26T07:13:11.093Z,78.96
2023-03-26T07:15:41.565Z,78.41
2023-03-26T07:18:09.784Z,76.65
2023-03-26T07:20:37.832Z,75.96
2023-03-26T07:23:06.166Z,74.94
2023-03-26T07:25:34.608Z,74.28
2023-03-26T07:28:11.304Z,73.28
2023-03-26T07:31:04.435Z,71.69
2023-03-26T07:34:13.246Z,70.35
2023-03-26T07:36:59.784Z,69.57
2023-03-26T07:39:43.888Z,68.40
2023-03-26T07:42:43.380Z,68.57
2023-03-26T07:45:41.811Z,69.67
2023-03-26T07:48:18.859Z,67.92
2023-03-26T07:50:47.562Z,66.96
2023-03-26T07:53:18.207Z,67.41
2023-03-26T07:55:52.234Z,66.24
2023-03-26T07:58:48.993Z,65.04
2023-03-26T08:01:45.436Z,65.31
2023-03-26T08:04:29.918Z,63.08
2023-03-26T08:07:37.533Z,64.01
2023-03-26T08:10:23.865Z,63.34
2023-03-26T08:13:07.382Z,61.27
2023-03-26T08:15:39.329Z,62.71
2023-03-26T08:18:31.619Z,60.58
2023-03-26T08:21:14.082Z,59.48
2023-03-26T08:23:51.972Z,57.46
2023-03-26T08:26:45.534Z,58.63
2023-03-26T08:29:34.578Z,58.35
2023-03-26T08:32:04.578Z,57.66
2023-03-26T08:34:32.232Z,55.23
2023-03-26T08:36:59.813Z,54.34
2023-03-26T08:39:27.966Z,54.45
2023-03-26T08:41:58.638Z,53.28
2023-03-26T08:44:32.306Z,51.83
2023-03-26T08:47:44.412Z,50.89
2023-03-26T08:50:26.631Z,51.77
2023-03-26T08:53:12.738Z,52.79
2023-03-26T08:55:55.300Z,53.33
2023-03-26T08:58:44.067Z,54.09
2023-03-26T09:01:23.903Z,52.17
2023-03-26T09:04:29.668Z,52.19
2023-03-26T09:07:19.001Z,51.08
2023-03-26T09:10:09.163Z,51.64
2023-03-26T09:13:14.250Z,48.50
2023-03-26T09:16:00.493Z,49.90
2023-03-26T09:18:53.672Z,50.02
2023-03-26T09:21:37.965Z,50.48
2023-03-26T09:24:33.296Z,50.46
2023-03-26T09:27:08.247Z,49.97
2023-03-26T09:29:57.122Z,47.96
2023-03-26T09:33:19.240Z,48.76
2023-03-26T09:35:55.118Z,49.01
2023-03-26T09:38:44.914Z,47.36
2023-03-26T09:41:25.754Z,46.65
2023-03-26T09:44:12.770Z,44.75
2023-03-26T09:47:09.187Z,45.51
2023-03-26T09:49:49.610Z,44.43
2023-03-26T09:52:31.924Z,42.53
2023-03-26T09:55:21.158Z,41.36
2023-03-26T09:58:00.635Z,42.31
2023-03-26T10:00:46.835Z,42.36
2023-03-26T10:03:17.782Z,43.25
2023-03-26T10:05:57.593Z,42.31
2023-03-26T10:08:34.811Z,42.90
2023-03-26T10:11:14.398Z,42.79
2023-03-26T10:13:59.620Z,42.33
2023-03-26T10:16:40.214Z,41.06
2023-03-26T10:19:23.635Z,40.21
2023-03-26T10:22:11.998Z,40.37
2023-03-26T10:25:01.464Z,39.34
2023-03-26T10:27:47.634Z,37.81
2023-03-26T10:30:43.306Z,36.86
2023-03-26T10:33:22.440Z,35.61
2023-03-26T10:36:18.837Z,36.24
2023-03-26T10:39:09.224Z,35.61
2023-03-26T10:41:45.957Z,37.17
2023-03-26T10:44:31.795Z,35.93
2023-03-26T10:47:30.701Z,36.06
2023-03-26T10:50:23.065Z,37.05
2023-03-26T10:53:20.756Z,37.06
2023-03-26T10:55:54.892Z,36.38
2023-03-26T10:58:27.634Z,36.43
2023-03-26T11:01:10.637Z,35.79
2023-03-26T11:03:54.936Z,34.40
2023-03-26T11:06:51.707Z,34.88
2023-03-26T11:09:28.620Z,34.30
2023-03-26T11:12:26.708Z,34.06
2023-03-26T11:15:02.115Z,33.30
2023-03-26T11:17:42.887Z,33.70
2023-03-26T11:20:32.690Z,33.39
2023-03-26T11:23:06.590Z,33.22
2023-03-26T11:26:14.619Z,32.65
2023-03-26T11:29:31.782Z,32.83
2023-03-26T11:32:05.490Z,32.32
2023-03-26T11:34:38.591Z,33.66
2023-03-26T11:37:12.571Z,33.62
2023-03-26T11:39:48.821Z,33.84
2023-03-26T11:42:18.737Z,32.53
2023-03-26T11:44:58.639Z,32.00
2023-03-26T11:47:32.550Z,32.09
2023-03-26T11:50:01.934Z,32.06
2023-03-26T11:52:29.991Z,30.29
2023-03-26T11:54:58.600Z,30.87
2023-03-26T11:57:30.345Z,30.12
2023-03-26T12:00:16.690Z,30.34
2023-03-26T12:02:46.241Z,30.41
2023-03-26T12:05:18.829Z,29.48
2023-03-26T12:07:58.170Z,29.95
2023-03-26T12:10:39.789Z,29.04
2023-03-26T12:13:28.577Z,28.39
2023-03-26T12:16:10.036Z,29.69
2023-03-26T12:18:39.870Z,30.13
2023-03-26T12:21:13.885Z,29.69
2023-03-26T12:23:54.037Z,30.79
2023-03-26T12:26:34.061Z,29.77
2023-03-26T12:29:17.170Z,30.91
2023-03-26T12:31:56.013Z,29.57
2023-03-26T12:34:31.132Z,29.66
2023-03-26T12:37:02.085Z,29.05
2023-03-26T12:40:09.140Z,29.69
2023-03-26T12:44:50.580Z,28.18
2023-03-26T12:45:23.673Z,28.57
2023-03-26T12:48:02.366Z,28.25
2023-03-26T12:50:57.191Z,29.36
2023-03-26T12:53:33.363Z,29.08
2023-03-26T12:56:19.927Z,28.62
2023-03-26T12:59:02.418Z,27.99
2023-03-26T13:01:39.812Z,27.84
2023-03-26T13:05:02.266Z,27.98
2023-03-26T13:07:39.995Z,27.88
2023-03-26T13:10:32.387Z,27.33
2023-03-26T13:13:28.686Z,27.45
2023-03-26T13:16:34.132Z,28.85
2023-03-26T13:19:05.372Z,28.46
2023-03-26T13:21:33.113Z,27.70
2023-03-26T13:24:07.076Z,28.34
2023-03-26T13:26:47.665Z,28.35
2023-03-26T13:29:23.612Z,27.33
2023-03-26T13:32:10.275Z,27.55
2023-03-26T13:35:02.532Z,26.58
2023-03-26T13:37:47.572Z,27.31
2023-03-26T13:40:57.793Z,27.75
2023-03-26T13:43:46.996Z,27.85
2023-03-26T13:46:31.394Z,29.37
2023-03-26T13:49:15.731Z,28.49
2023-03-26T13:51:45.366Z,28.60
2023-03-26T13:54:45.881Z,28.52
2023-03-26T13:57:29.955Z,28.53
2023-03-26T14:00:06.674Z,28.47
2023-03-26T14:02:41.771Z,28.61
2023-03-26T14:05:29.834Z,29.44
2023-03-26T14:08:04.865Z,28.67
2023-03-26T14:10:36.749Z,29.39
2023-03-26T14:13:20.730Z,29.37
2023-03-26T14:15:52.908Z,28.78
2023-03-26T14:18:39.683Z,28.62
2023-03-26T14:21:25.958Z,29.35
2023-03-26T14:24:09.772Z,29.07
2023-03-26T14:26:46.407Z,28.67
2023-03-26T14:29:18.897Z,28.38
2023-03-26T14:32:02.444Z,28.27
2023-03-26T14:34:54.574Z,28.22
2023-03-26T14:37:46.463Z,29.02
2023-03-26T14:40:27.208Z,28.37
2023-03-26T14:43:05.458Z,29.02
2023-03-26T14:45:48.262Z,29.98
2023-03-26T14:48:34.416Z,29.44
2023-03-26T14:51:16.622Z,29.60
2023-03-26T14:53:53.547Z,29.06
2023-03-26T14:56:46.918Z,29.45
2023-03-26T14:59:40.785Z,28.68
2023-03-26T15:02:20.772Z,29.16
2023-03-26T15:04:54.399Z,29.21
2023-03-26T15:07:45.928Z,29.91
2023-03-26T15:10:22.601Z,29.18
2023-03-26T15:13:16.056Z,30.04
2023-03-26T15:15:55.563Z,29.38
2023-03-26T15:18:23.340Z,29.87
2023-03-26T15:21:19.200Z,29.76
2023-03-26T15:24:32.366Z,30.28
2023-03-26T15:27:34.560Z,30.33
2023-03-26T15:30:08.545Z,29.43
2023-03-26T15:33:10.664Z,30.69
2023-03-26T15:36:09.128Z,31.23
2023-03-26T15:39:06.667Z,30.07
2023-03-26T15:41:56.042Z,30.14
2023-03-26T15:44:29.854Z,29.69
2023-03-26T15:47:01.541Z,29.83
2023-03-26T15:49:39.805Z,30.00
2023-03-26T15:52:29.675Z,29.61
2023-03-26T15:55:06.025Z,29.62
2023-03-26T15:57:41.176Z,29.98
2023-03-26T16:00:34.379Z,30.19
2023-03-26T16:03:25.753Z,30.80
2023-03-26T16:06:02.392Z,32.05
2023-03-26T16:08:41.752Z,32.24
2023-03-26T16:11:12.730Z,32.53
2023-03-26T16:13:49.953Z,32.79
2023-03-26T16:16:22.543Z,33.40
2023-03-26T16:19:21.887Z,33.72
2023-03-26T16:22:14.156Z,34.67
2023-03-26T16:24:46.766Z,35.39
2023-03-26T16:27:15.235Z,35.61
2023-03-26T16:30:29.047Z,36.19
2023-03-26T16:33:16.752Z,37.52
2023-03-26T16:36:25.972Z,38.29
2023-03-26T16:39:11.881Z,39.34
2023-03-26T16:41:39.654Z,39.12
2023-03-26T16:44:35.030Z,39.70
2023-03-26T16:47:18.284Z,39.91
2023-03-26T16:50:08.468Z,40.34
2023-03-26T16:52:52.026Z,40.14
2023-03-26T16:56:05.213Z,40.16
2023-03-26T16:58:55.946Z,40.22
2023-03-26T17:01:50.500Z,40.24
2023-03-26T17:04:26.253Z,40.50
2023-03-26T17:07:05.897Z,41.06
2023-03-26T17:09:37.871Z,40.98
2023-03-26T17:12:23.863Z,41.48
2023-03-26T17:15:04.881Z,41.23
2023-03-26T17:17:44.408Z,41.24
2023-03-26T17:20:33.514Z,41.73
2023-03-26T17:23:22.715Z,41.81
2023-03-26T17:25:57.753Z,42.14
2023-03-26T17:28:38.649Z,42.65
2023-03-26T17:31:21.221Z,42.70
2023-03-26T17:33:49.953Z,42.91
2023-03-26T17:36:31.482Z,43.22
2023-03-26T17:39:01.882Z,43.48
2023-03-26T17:41:50.849Z,43.77
2023-03-26T17:44:36.814Z,44.16
2023-03-26T17:47:07.135Z,44.61
2023-03-26T17:49:35.475Z,44.53
2023-03-26T17:52:04.207Z,45.09
2023-03-26T17:54:44.454Z,45.29
2023-03-26T17:57:15.858Z,45.84
2023-03-26T17:59:45.549Z,46.23
2023-03-26T18:02:19.311Z,46.16
2023-03-26T18:04:51.679Z,46.28
2023-03-26T18:07:37.719Z,46.26
2023-03-26T18:10:38.959Z,46.68
2023-03-26T18:13:09.843Z,46.59
2023-03-26T18:16:11.743Z,46.80
2023-03-26T18:18:49.865Z,47.01
2023-03-26T18:21:38.918Z,46.89
2023-03-26T18:24:08.924Z,47.07
2023-03-26T18:26:42.861Z,47.11
2023-03-26T18:29:24.708Z,47.06
2023-03-26T18:31:57.743Z,47.17
2023-03-26T18:34:29.202Z,47.14
2023-03-26T18:37:11.572Z,47.10
2023-03-26T18:39:39.761Z,47.02
2023-03-26T18:42:22.631Z,46.99
2023-03-26T18:44:54.255Z,47.04
2023-03-26T18:47:29.122Z,46.98
2023-03-26T18:49:58.570Z,46.95
2023-03-26T18:52:28.677Z,46.88
2023-03-26T18:54:59.144Z,46.78
2023-03-26T18:57:29.050Z,46.79
2023-03-26T19:00:14.625Z,46.86
2023-03-26T19:02:42.578Z,47.28
2023-03-26T19:05:15.307Z,47.39
2023-03-26T19:07:45.816Z,47.34
2023-03-26T19:10:18.644Z,47.29
2023-03-26T19:12:46.494Z,47.31
2023-03-26T19:15:16.444Z,47.35
2023-03-26T19:17:59.797Z,47.61
2023-03-26T19:20:30.037Z,47.75
2023-03-26T19:22:58.081Z,47.66
2023-03-26T19:25:29.096Z,47.85
2023-03-26T19:27:57.333Z,48.37
2023-03-26T19:30:34.109Z,48.63
2023-03-26T19:33:12.371Z,50.03
2023-03-26T19:35:42.775Z,49.36
2023-03-26T19:38:25.671Z,49.21
2023-03-26T19:40:57.784Z,49.53
2023-03-26T19:43:26.986Z,49.63
2023-03-26T19:46:00.470Z,49.77
2023-03-26T19:48:45.528Z,49.82
2023-03-26T19:51:32.233Z,49.85
2023-03-26T19:54:06.235Z,49.85
2023-03-26T19:56:34.442Z,50.40
2023-03-26T19:59:02.612Z,50.80
2023-03-26T20:01:31.901Z,50.99
2023-03-26T20:04:01.778Z,50.85
2023-03-26T20:06:42.416Z,50.84
2023-03-26T20:09:13.150Z,51.09
2023-03-26T20:11:41.891Z,51.32
2023-03-26T20:14:16.454Z,51.53
2023-03-26T20:16:45.671Z,51.61
2023-03-26T20:19:15.062Z,51.74
2023-03-26T20:21:44.451Z,51.65
2023-03-26T20:24:15.742Z,51.67
2023-03-26T20:26:44.767Z,51.69
2023-03-26T20:29:13.433Z,51.90
2023-03-26T20:31:42.839Z,52.13
2023-03-26T20:34:17.395Z,52.39
2023-03-26T20:36:46.941Z,52.63
2023-03-26T20:39:15.097Z,52.74
2023-03-26T20:41:48.296Z,53.01
2023-03-26T20:44:18.322Z,53.28
2023-03-26T20:46:48.295Z,53.30
2023-03-26T20:49:16.441Z,53.19
2023-03-26T20:51:45.721Z,53.34
2023-03-26T20:54:15.924Z,53.75
2023-03-26T20:56:44.016Z,54.04
2023-03-26T20:59:17.911Z,54.40
2023-03-26T21:01:48.912Z,54.51
2023-03-26T21:04:17.695Z,54.58
2023-03-26T21:06:45.597Z,55.06
2023-03-26T21:09:17.690Z,55.17
2023-03-26T21:11:52.321Z,55.38
2023-03-26T21:14:41.278Z,55.84
2023-03-26T21:17:18.244Z,56.89
2023-03-26T21:19:47.188Z,60.44
2023-03-26T21:22:28.281Z,60.81
2023-03-26T21:25:01.806Z,58.13
2023-03-26T21:27:44.231Z,56.39
2023-03-26T21:30:16.590Z,57.90
2023-03-26T21:32:46.252Z,58.31
2023-03-26T21:35:16.187Z,59.33
2023-03-26T21:37:45.730Z,60.08
2023-03-26T21:40:14.843Z,61.29
2023-03-26T21:42:50.174Z,61.66
2023-03-26T21:45:18.969Z,61.91
2023-03-26T21:47:47.538Z,64.28
2023-03-26T21:50:18.882Z,63.49
2023-03-26T21:52:47.232Z,64.60
2023-03-26T21:55:17.022Z,65.25
2023-03-26T21:58:08.929Z,64.27
2023-03-26T22:00:45.820Z,64.69
2023-03-26T22:03:25.859Z,67.00
2023-03-26T22:06:07.209Z,68.83
2023-03-26T22:08:38.682Z,70.69
2023-03-26T22:11:07.414Z,69.56
2023-03-26T22:13:38.848Z,68.04
2023-03-26T22:16:08.743Z,67.28
2023-03-26T22:18:36.578Z,67.32
2023-03-26T22:21:04.600Z,67.28
2023-03-26T22:23:36.172Z,64.67
2023-03-26T22:26:05.102Z,65.24
2023-03-26T22:28:33.198Z,67.71
2023-03-26T22:31:07.315Z,68.56
2023-03-26T22:33:36.132Z,67.70
2023-03-26T22:36:03.946Z,69.00
2023-03-26T22:38:31.538Z,68.70
2023-03-26T22:40:59.508Z,69.17
2023-03-26T22:43:27.043Z,69.36
2023-03-26T22:45:55.123Z,70.05
2023-03-26T22:48:23.876Z,69.35
2023-03-26T22:51:06.009Z,69.42
2023-03-26T22:53:34.740Z,69.14
2023-03-26T22:56:03.081Z,68.54
2023-03-26T22:58:30.527Z,69.43
2023-03-26T23:01:07.981Z,69.32
2023-03-26T23:03:37.204Z,68.99
2023-03-26T23:06:07.548Z,69.53
2023-03-26T23:08:37.399Z,69.07
2023-03-26T23:11:17.070Z,68.73
2023-03-26T23:13:45.362Z,68.84
2023-03-26T23:16:14.200Z,69.72
2023-03-26T23:18:42.070Z,68.91
2023-03-26T23:21:14.991Z,69.96
2023-03-26T23:23:42.940Z,70.03
2023-03-26T23:26:10.900Z,70.50
2023-03-26T23:28:38.866Z,70.48
2023-03-26T23:31:09.180Z,69.95
2023-03-26T23:33:38.553Z,70.41
2023-03-26T23:36:10.522Z,69.96
2023-03-26T23:38:43.994Z,70.12
2023-03-26T23:41:16.172Z,70.18
2023-03-26T23:43:54.348Z,70.11
2023-03-26T23:46:25.190Z,70.08
2023-03-26T23:48:53.278Z,69.91
2023-03-26T23:51:21.477Z,69.80
2023-03-26T23:53:49.662Z,69.58
2023-03-26T23:56:17.563Z,69.52
2023-03-26T23:58:45.350Z,69.47
